Time;durP1;ratioP1;P1;durP2;ratioP2;P2;SDS_P1;SDS_P2;PMS_P1;PMS_P2;Temp;Humidity;BMP_temperature;BMP_pressure;BME280_temperature;BME280_humidity;BME280_pressure;Samples;Min_cycle;Max_cycle;Signal;HPM_P1;HPM_P2
2022/05/16 00:00:14;;;;;;;4.07;3.13;;;;;;;11.18;100.00;91295.31;5011143;28;20022;-65
2022/05/16 00:02:40;;;;;;;3.08;2.78;;;;;;;11.19;100.00;91296.88;5011079;28;20030;-65
2022/05/16 00:05:06;;;;;;;3.33;2.83;;;;;;;11.17;100.00;91300.94;4994105;28;20030;-65
2022/05/16 00:07:32;;;;;;;3.67;3.28;;;;;;;11.18;100.00;91295.31;4991502;28;20543;-65
2022/05/16 00:09:58;;;;;;;4.00;3.28;;;;;;;11.14;100.00;91290.91;4991494;28;20026;-65
2022/05/16 00:12:24;;;;;;;3.58;3.08;;;;;;;11.18;100.00;91283.88;4991630;28;20065;-65
2022/05/16 00:14:50;;;;;;;3.13;2.80;;;;;;;11.06;100.00;91287.09;4995049;28;20409;-65
2022/05/16 00:17:16;;;;;;;3.08;2.78;;;;;;;11.11;100.00;91289.63;4994943;28;20477;-65
2022/05/16 00:19:42;;;;;;;3.42;2.92;;;;;;;10.93;100.00;91279.94;4995033;28;20026;-65
2022/05/16 00:22:09;;;;;;;3.72;2.58;;;;;;;10.92;100.00;91287.13;4994910;28;20068;-65
2022/05/16 00:24:34;;;;;;;3.63;2.75;;;;;;;10.93;100.00;91291.38;4994989;28;20412;-65
2022/05/16 00:27:00;;;;;;;3.35;2.55;;;;;;;10.90;100.00;91296.53;4994945;28;20034;-65
2022/05/16 00:29:26;;;;;;;1.90;1.80;;;;;;;10.89;100.00;91293.06;4994817;28;20040;-65
2022/05/16 00:31:54;;;;;;;4.03;3.50;;;;;;;10.87;100.00;91279.25;4994755;28;20068;-65
2022/05/16 00:34:20;;;;;;;2.65;2.45;;;;;;;10.88;100.00;91288.81;4994616;28;20037;-65
2022/05/16 00:36:48;;;;;;;4.32;2.90;;;;;;;10.88;100.00;91291.47;4994533;28;20034;-65
2022/05/16 00:39:15;;;;;;;3.95;2.50;;;;;;;10.91;100.00;91292.78;4994616;28;20023;-65
2022/05/16 00:41:42;;;;;;;4.55;3.00;;;;;;;10.87;100.00;91286.44;4994639;28;20033;-65
2022/05/16 00:44:09;;;;;;;3.58;2.78;;;;;;;10.86;100.00;91288.31;4994715;28;20027;-65
2022/05/16 00:46:34;;;;;;;2.83;2.38;;;;;;;10.87;100.00;91292.56;4994481;28;20484;-66
2022/05/16 00:49:02;;;;;;;3.28;2.97;;;;;;;10.87;100.00;91287.22;4994305;28;20480;-65
2022/05/16 00:51:48;;;;;;;3.25;2.80;;;;;;;10.82;100.00;91283.91;4994410;28;20080;-65
2022/05/16 00:54:19;;;;;;;3.85;2.95;;;;;;;10.79;100.00;91287.97;4994296;28;20484;-65
2022/05/16 00:56:45;;;;;;;3.30;2.72;;;;;;;10.79;100.00;91287.97;4994253;28;20026;-65
2022/05/16 00:59:11;;;;;;;3.67;2.67;;;;;;;10.76;100.00;91278.72;4994326;28;20547;-65
2022/05/16 01:07:05;;;;;;;2.90;2.53;;;;;;;10.70;100.00;91284.44;5001131;28;20527;-64
2022/05/16 01:09:31;;;;;;;2.05;1.92;;;;;;;10.69;100.00;91282.84;5013649;28;20022;-64
2022/05/16 01:11:58;;;;;;;3.42;2.55;;;;;;;10.62;100.00;91279.84;5013665;28;20137;-64
2022/05/16 01:14:44;;;;;;;2.35;2.10;;;;;;;10.58;100.00;91279.66;5013538;28;20033;-64
2022/05/16 01:17:10;;;;;;;3.58;2.03;;;;;;;10.50;100.00;91281.13;5012171;28;20049;-64
2022/05/16 01:19:36;;;;;;;11.68;2.72;;;;;;;10.37;100.00;91281.94;5013437;28;20393;-65
2022/05/16 01:22:09;;;;;;;2.97;2.28;;;;;;;10.35;100.00;91281.47;5013441;28;20092;-65
2022/05/16 01:24:34;;;;;;;2.63;2.42;;;;;;;10.33;100.00;91283.63;5012519;28;20572;-65
2022/05/16 01:27:00;;;;;;;2.25;2.08;;;;;;;10.30;100.00;91278.91;5013455;28;20088;-65
2022/05/16 01:29:25;;;;;;;2.60;2.40;;;;;;;10.29;100.00;91269.38;5013504;28;20034;-65
2022/05/16 01:31:52;;;;;;;3.45;2.20;;;;;;;10.29;100.00;91277.34;5013659;28;20022;-64
2022/05/16 01:34:18;;;;;;;2.65;2.33;;;;;;;10.28;100.00;91273.09;5013616;28;20584;-64
2022/05/16 01:36:43;;;;;;;3.25;2.28;;;;;;;10.27;100.00;91276.84;5013137;28;20061;-64
2022/05/16 01:39:09;;;;;;;2.38;2.13;;;;;;;10.28;100.00;91269.66;5013123;28;20034;-64
2022/05/16 01:41:34;;;;;;;2.30;2.10;;;;;;;10.28;100.00;91272.31;5013012;28;20033;-64
2022/05/16 01:44:02;;;;;;;2.25;2.05;;;;;;;10.36;100.00;91274.25;5012781;28;20034;-64
2022/05/16 01:46:37;;;;;;;2.38;2.17;;;;;;;10.35;100.00;91265.50;5013093;28;20030;-64
2022/05/16 01:49:04;;;;;;;2.55;2.20;;;;;;;10.40;100.00;91270.69;5012971;28;20109;-65
2022/05/16 01:51:30;;;;;;;2.30;2.10;;;;;;;10.45;100.00;91267.16;5012932;28;20095;-65
2022/05/16 01:53:56;;;;;;;2.13;1.92;;;;;;;10.41;100.00;91266.16;5012695;28;20051;-65
2022/05/16 01:56:22;;;;;;;2.28;2.08;;;;;;;10.44;100.00;91266.38;5013079;28;20036;-65
2022/05/16 01:58:48;;;;;;;2.88;2.50;;;;;;;10.48;100.00;91262.03;5012663;28;20025;-65
2022/05/16 02:01:14;;;;;;;2.20;2.00;;;;;;;10.61;100.00;91265.75;5012691;28;20033;-64
2022/05/16 02:03:42;;;;;;;2.30;2.10;;;;;;;10.64;100.00;91267.03;5012606;28;20038;-64
2022/05/16 02:06:07;;;;;;;2.63;2.42;;;;;;;10.58;100.00;91270.88;5012638;28;20029;-64
2022/05/16 02:08:33;;;;;;;3.53;2.33;;;;;;;10.48;100.00;91262.03;5012793;28;20036;-64
2022/05/16 02:11:01;;;;;;;2.55;2.30;;;;;;;10.46;100.00;91274.84;5012542;28;20033;-64
2022/05/16 02:13:26;;;;;;;2.65;2.45;;;;;;;10.44;100.00;91277.03;5012416;28;20488;-64
2022/05/16 02:15:52;;;;;;;1.80;1.70;;;;;;;10.43;100.00;91272.78;5012503;28;20033;-64
2022/05/16 02:18:18;;;;;;;3.45;2.40;;;;;;;10.36;100.00;91274.25;5012531;28;20030;-64
2022/05/16 02:20:43;;;;;;;3.33;2.40;;;;;;;10.29;100.00;91269.38;5012567;28;20404;-64
2022/05/16 02:25:55;;;;;;;2.40;2.20;;;;;;;10.36;100.00;91275.06;5012286;28;20087;-64
2022/05/16 02:28:21;;;;;;;3.25;2.28;;;;;;;10.35;100.00;91273.47;5012294;28;20493;-64
2022/05/16 02:30:47;;;;;;;2.67;2.30;;;;;;;10.42;100.00;91268.56;5012442;28;20038;-64
2022/05/16 02:33:16;;;;;;;2.33;2.13;;;;;;;10.37;100.00;91273.19;5010775;28;20048;-64
2022/05/16 02:35:42;;;;;;;2.78;2.20;;;;;;;10.25;100.00;91273.69;5010885;28;20401;-64
2022/05/16 02:38:10;;;;;;;2.45;2.13;;;;;;;10.20;100.00;91277.22;5012004;28;20017;-64
2022/05/16 02:40:36;;;;;;;2.60;2.40;;;;;;;10.09;100.00;91272.38;5012016;28;20118;-64
2022/05/16 02:43:03;;;;;;;2.40;2.20;;;;;;;10.04;100.00;91277.81;5011963;28;20108;-65
2022/05/16 02:45:30;;;;;;;2.47;2.28;;;;;;;9.93;100.00;91281.75;5012021;28;20034;-64
2022/05/16 02:47:56;;;;;;;2.20;2.00;;;;;;;9.88;100.00;91279.97;5011918;28;20551;-65
2022/05/16 02:50:23;;;;;;;2.33;2.13;;;;;;;9.78;100.00;91280.97;5011704;28;20133;-64
2022/05/16 02:52:53;;;;;;;2.60;2.40;;;;;;;9.83;100.00;91283.53;5012025;28;20022;-65
2022/05/16 02:55:19;;;;;;;2.40;2.13;;;;;;;9.79;100.00;91290.53;5011827;28;20022;-65
2022/05/16 02:57:45;;;;;;;2.53;2.25;;;;;;;9.77;100.00;91289.22;5011716;28;20025;-64
2022/05/16 03:00:12;;;;;;;2.00;1.90;;;;;;;9.76;100.00;91287.63;5011772;28;20036;-64
2022/05/16 03:02:39;;;;;;;3.13;1.98;;;;;;;9.79;100.00;91281.75;5011593;28;20029;-65
2022/05/16 03:05:06;;;;;;;2.67;2.47;;;;;;;9.77;100.00;91284.69;5011693;28;20030;-64
2022/05/16 03:07:32;;;;;;;2.60;2.40;;;;;;;9.68;100.00;91275.84;5011673;28;20026;-64
2022/05/16 03:09:58;;;;;;;2.55;2.35;;;;;;;9.76;100.00;91298.28;5011668;28;20475;-64
2022/05/16 03:12:23;;;;;;;2.20;2.00;;;;;;;9.71;100.00;91293.84;5011601;28;20104;-65
2022/05/16 03:14:49;;;;;;;2.45;2.25;;;;;;;9.68;100.00;91291.00;5011425;28;20045;-64
2022/05/16 03:17:14;;;;;;;2.63;2.42;;;;;;;9.69;100.00;91290.69;5011484;28;20041;-64
2022/05/16 03:19:40;;;;;;;2.40;2.20;;;;;;;9.72;100.00;91294.63;5011534;28;20037;-64
2022/05/16 03:22:06;;;;;;;2.17;1.98;;;;;;;9.72;100.00;91273.38;5011702;28;20034;-65
2022/05/16 03:24:32;;;;;;;2.13;1.92;;;;;;;9.87;100.00;91289.81;5011340;28;20486;-66
2022/05/16 03:26:58;;;;;;;1.92;1.83;;;;;;;9.93;100.00;91279.09;5011422;28;20066;-65
2022/05/16 03:29:24;;;;;;;2.33;2.13;;;;;;;10.03;100.00;91292.19;5011420;28;20049;-65
2022/05/16 03:31:50;;;;;;;3.05;2.80;;;;;;;10.09;100.00;91291.00;5011416;28;20038;-64
2022/05/16 03:34:15;;;;;;;2.50;2.30;;;;;;;10.06;100.00;91296.91;5011329;28;20029;-64
2022/05/16 03:36:40;;;;;;;2.47;2.28;;;;;;;10.05;100.00;91301.44;5011338;28;20103;-64
2022/05/16 03:41:51;;;;;;;2.40;2.20;;;;;;;9.99;100.00;91294.66;5011583;28;20416;-64
2022/05/16 03:44:18;;;;;;;2.25;2.05;;;;;;;10.07;100.00;91306.44;5011205;28;20061;-64
2022/05/16 03:46:44;;;;;;;3.55;2.17;;;;;;;10.15;100.00;91311.09;5011454;28;20041;-64
2022/05/16 03:49:10;;;;;;;2.58;2.17;;;;;;;10.18;100.00;91305.97;5014111;28;20487;-65
2022/05/16 03:51:36;;;;;;;3.00;2.70;;;;;;;10.20;100.00;91311.78;5015152;28;20022;-64
2022/05/16 03:54:01;;;;;;;2.50;2.30;;;;;;;10.26;100.00;91315.16;5014914;28;20026;-64
2022/05/16 03:56:28;;;;;;;3.05;2.58;;;;;;;10.32;100.00;91323.81;5015018;28;20026;-65
2022/05/16 03:58:55;;;;;;;2.50;2.30;;;;;;;10.37;100.00;91319.19;5014926;28;20034;-65
2022/05/16 04:01:21;;;;;;;2.47;2.22;;;;;;;10.50;100.00;91317.59;5015870;28;20083;-64
2022/05/16 04:03:47;;;;;;;2.83;2.53;;;;;;;10.56;100.00;91318.25;5015390;28;20488;-64
2022/05/16 04:06:13;;;;;;;3.08;2.40;;;;;;;10.35;100.00;91309.91;5014751;28;20034;-64
2022/05/16 04:08:40;;;;;;;3.10;2.63;;;;;;;10.40;100.00;91313.25;5014672;28;20058;-64
2022/05/16 04:11:06;;;;;;;4.00;3.10;;;;;;;10.50;100.00;91315.72;5014641;28;20022;-64
2022/05/16 04:13:32;;;;;;;3.80;2.38;;;;;;;10.63;100.00;91316.00;5014501;28;20033;-64
2022/05/16 04:15:58;;;;;;;5.72;3.03;;;;;;;10.73;100.00;91316.56;5014589;28;20028;-64
2022/05/16 04:18:24;;;;;;;2.50;2.30;;;;;;;10.93;100.00;91320.66;5014449;28;20030;-64
2022/05/16 04:20:49;;;;;;;3.85;2.25;;;;;;;10.96;100.00;91325.38;5014759;28;20030;-64
2022/05/16 04:23:15;;;;;;;2.88;2.30;;;;;;;11.02;100.00;91329.47;5014413;28;20068;-64
2022/05/16 04:25:40;;;;;;;3.85;2.75;;;;;;;11.02;100.00;91318.03;5014411;28;20037;-64
2022/05/16 04:28:08;;;;;;;3.70;2.50;;;;;;;11.07;100.00;91326.72;5014413;28;20149;-64
2022/05/16 04:30:34;;;;;;;2.67;2.47;;;;;;;11.18;100.00;91321.94;5014320;28;20065;-65
2022/05/16 04:33:00;;;;;;;2.97;2.63;;;;;;;11.19;100.00;91323.50;5014194;28;20034;-64
2022/05/16 04:35:26;;;;;;;2.88;2.58;;;;;;;11.36;100.00;91328.97;5014231;28;20033;-64
2022/05/16 04:37:51;;;;;;;2.50;2.28;;;;;;;11.52;100.00;91328.59;5014201;28;20455;-65
2022/05/16 04:40:18;;;;;;;5.47;2.88;;;;;;;11.61;100.00;91330.22;5014146;28;20411;-65
2022/05/16 04:42:44;;;;;;;2.35;2.15;;;;;;;11.74;100.00;91323.25;5013488;28;20073;-64
2022/05/16 04:45:12;;;;;;;2.50;2.30;;;;;;;11.92;100.00;91326.81;5014024;28;20053;-65
2022/05/16 04:47:39;;;;;;;2.80;2.20;;;;;;;12.03;100.00;91322.81;5013918;28;20038;-65
2022/05/16 04:50:06;;;;;;;2.47;2.28;;;;;;;12.13;100.00;91319.84;5013753;28;20057;-65
2022/05/16 04:52:32;;;;;;;2.15;2.05;;;;;;;12.23;100.00;91324.91;5013717;28;20507;-65
2022/05/16 04:54:59;;;;;;;2.50;2.05;;;;;;;12.41;100.00;91319.63;5013841;28;20408;-65
2022/05/16 04:57:25;;;;;;;2.80;2.13;;;;;;;12.50;99.71;91320.47;5014035;28;20022;-64
2022/05/16 04:59:51;;;;;;;6.38;3.00;;;;;;;12.60;98.64;91317.47;5012665;28;20034;-65
2022/05/16 05:02:17;;;;;;;5.35;2.35;;;;;;;12.72;97.82;91315.00;5013723;28;20148;-65
2022/05/16 05:04:43;;;;;;;3.13;2.35;;;;;;;12.94;96.27;91315.97;5013415;28;20034;-65
2022/05/16 05:07:09;;;;;;;2.05;1.92;;;;;;;13.13;93.77;91319.16;5013658;28;20045;-65
2022/05/16 05:14:32;;;;;;;2.30;1.98;;;;;;;13.31;89.89;91323.41;5013394;28;20037;-64
2022/05/16 05:15:09;;;;;;;2.72;2.50;;;;;;;13.84;82.69;91322.22;5013709;28;20507;-65
2022/05/16 05:17:35;;;;;;;3.83;2.13;;;;;;;14.07;79.34;91318.25;5013338;28;20101;-65
2022/05/16 05:20:01;;;;;;;2.70;1.88;;;;;;;14.41;76.54;91319.22;5013480;28;20084;-65
2022/05/16 05:22:26;;;;;;;1.98;1.88;;;;;;;16.78;67.33;91325.47;5013312;28;20022;-65
2022/05/16 05:24:52;;;;;;;2.40;2.20;;;;;;;19.51;56.61;91327.69;5013391;28;20038;-65
2022/05/16 05:27:17;;;;;;;2.80;2.05;;;;;;;21.30;51.37;91329.88;5011634;28;20030;-64
2022/05/16 05:29:43;;;;;;;2.22;2.03;;;;;;;22.56;47.87;91329.16;5013086;28;20494;-65
2022/05/16 05:32:09;;;;;;;2.22;2.03;;;;;;;24.77;44.37;91342.25;5013126;28;20033;-64
2022/05/16 05:34:38;;;;;;;2.72;2.53;;;;;;;26.95;40.41;91331.75;5013000;28;20025;-63
2022/05/16 05:37:04;;;;;;;3.47;2.10;;;;;;;29.63;36.28;91340.63;5013036;28;20030;-63
2022/05/16 05:39:31;;;;;;;2.35;2.15;;;;;;;31.48;34.12;91340.56;5012998;28;20527;-63
2022/05/16 05:41:57;;;;;;;2.40;2.20;;;;;;;32.77;32.60;91346.34;5012934;28;20025;-64
2022/05/16 05:44:24;;;;;;;2.38;2.10;;;;;;;33.67;30.66;91345.31;5012740;28;20041;-64
2022/05/16 05:46:49;;;;;;;2.42;2.22;;;;;;;34.43;30.22;91344.44;5012856;28;20038;-64
2022/05/16 05:49:15;;;;;;;9.00;2.53;;;;;;;34.38;30.46;91353.28;5012507;28;20443;-64
2022/05/16 05:51:41;;;;;;;3.85;2.80;;;;;;;33.17;32.84;91346.03;5012578;28;20022;-64
2022/05/16 05:54:07;;;;;;;4.30;2.88;;;;;;;31.12;34.93;91343.34;5012490;28;20030;-63
2022/05/16 05:56:33;;;;;;;3.30;3.00;;;;;;;31.70;35.22;91346.34;5012981;28;20034;-65
2022/05/16 05:58:58;;;;;;;4.50;3.45;;;;;;;32.30;35.06;91357.09;5012588;28;20026;-67
2022/05/16 06:01:25;;;;;;;4.50;2.58;;;;;;;33.43;33.18;91347.63;5012687;28;20432;-66
2022/05/16 06:03:51;;;;;;;3.28;2.97;;;;;;;34.31;31.96;91348.00;5012458;28;20423;-66
2022/05/16 06:06:16;;;;;;;3.33;2.92;;;;;;;34.94;31.59;91360.84;5012563;28;20033;-66
2022/05/16 06:08:42;;;;;;;5.43;3.65;;;;;;;33.76;33.06;91361.19;5012240;28;20033;-65
2022/05/16 06:11:07;;;;;;;6.32;3.97;;;;;;;34.43;31.94;91358.25;5012477;28;20038;-71
2022/05/16 06:13:33;;;;;;;5.13;3.90;;;;;;;35.37;31.08;91357.28;5012255;28;20496;-69
2022/05/16 06:15:59;;;;;;;3.25;2.72;;;;;;;35.92;29.91;91372.16;5011195;28;20492;-70
2022/05/16 06:18:24;;;;;;;3.55;2.67;;;;;;;35.86;31.00;91373.22;5012222;28;20033;-70
2022/05/16 06:20:50;;;;;;;4.25;2.78;;;;;;;35.44;30.63;91370.06;5012214;28;20065;-69
2022/05/16 06:23:16;;;;;;;3.15;2.80;;;;;;;34.67;31.42;91369.66;5012443;28;20022;-69
2022/05/16 06:25:43;;;;;;;3.78;2.65;;;;;;;34.99;31.56;91371.31;5012214;28;20030;-69
2022/05/16 06:28:10;;;;;;;3.58;2.85;;;;;;;35.33;31.18;91373.97;5012228;28;20030;-70
2022/05/16 06:30:38;;;;;;;6.10;3.53;;;;;;;33.64;33.28;91380.09;5012051;28;20041;-70
2022/05/16 06:33:04;;;;;;;4.35;3.08;;;;;;;33.74;32.61;91372.66;5011789;28;20030;-69
2022/05/16 06:35:31;;;;;;;3.80;3.40;;;;;;;34.70;32.07;91371.50;5011797;28;20025;-70
2022/05/16 06:38:02;;;;;;;4.88;3.55;;;;;;;34.73;31.68;91378.94;5011622;28;20425;-70
2022/05/16 06:40:28;;;;;;;8.15;3.22;;;;;;;34.74;32.45;91374.94;5011946;28;20069;-69
2022/05/16 06:42:53;;;;;;;7.55;3.50;;;;;;;37.01;30.48;91376.34;5011876;28;20037;-70
2022/05/16 06:45:19;;;;;;;9.25;3.35;;;;;;;36.89;30.23;91378.03;5011876;28;20101;-70
2022/05/16 06:47:44;;;;;;;12.05;3.17;;;;;;;34.77;32.09;91372.06;5011751;28;20530;-68
2022/05/16 06:50:10;;;;;;;5.38;3.42;;;;;;;36.67;30.69;91373.88;5011713;28;20099;-70
2022/05/16 06:52:36;;;;;;;5.75;3.60;;;;;;;36.95;28.97;91371.91;5011616;28;20026;-70
2022/05/16 06:55:01;;;;;;;4.03;3.33;;;;;;;36.23;30.96;91374.84;5011842;28;20484;-70
2022/05/16 06:57:28;;;;;;;3.50;2.85;;;;;;;37.09;29.80;91374.03;5011657;28;20033;-68
2022/05/16 06:59:53;;;;;;;3.15;2.85;;;;;;;38.29;28.14;91370.47;5011604;28;20065;-69
2022/05/16 07:02:19;;;;;;;5.32;3.40;;;;;;;39.61;27.03;91368.50;5011538;28;20041;-70
2022/05/16 07:04:44;;;;;;;3.50;3.08;;;;;;;36.17;28.17;91357.31;5012522;28;20407;-70
2022/05/16 07:07:10;;;;;;;5.60;3.42;;;;;;;33.99;31.47;91347.06;5012821;28;20038;-69
2022/05/16 07:09:39;;;;;;;2.90;2.70;;;;;;;34.70;30.05;91364.00;5012830;28;20028;-70
2022/05/16 07:12:07;;;;;;;4.18;2.80;;;;;;;36.27;29.37;91364.38;5011605;28;20037;-70
2022/05/16 07:14:34;;;;;;;3.10;2.80;;;;;;;38.19;26.92;91360.66;5011307;28;20034;-70
2022/05/16 07:17:00;;;;;;;3.63;2.90;;;;;;;39.92;25.34;91357.63;5011452;28;20037;-69
2022/05/16 07:19:29;;;;;;;2.88;2.58;;;;;;;38.07;26.78;91353.28;5011442;28;20462;-69
2022/05/16 07:21:55;;;;;;;4.57;3.08;;;;;;;39.93;25.95;91361.22;5011112;28;20092;-70
2022/05/16 07:24:21;;;;;;;4.55;3.15;;;;;;;38.62;26.28;91359.28;5010928;28;20026;-71
2022/05/16 07:29:30;;;;;;;2.05;1.85;;;;;;;37.47;24.04;91356.88;5011693;28;20479;-70
2022/05/16 07:31:57;;;;;;;2.90;2.05;;;;;;;36.71;24.73;91352.28;5011560;28;20039;-69
2022/05/16 07:34:22;;;;;;;2.30;2.08;;;;;;;37.99;23.00;91352.84;5010894;28;20112;-68
2022/05/16 07:36:48;;;;;;;4.82;2.20;;;;;;;37.57;24.60;91352.06;5011162;28;20026;-68
2022/05/16 07:39:13;;;;;;;1.88;1.77;;;;;;;35.87;24.37;91358.13;5011028;28;20510;-68
2022/05/16 07:41:39;;;;;;;1.70;1.60;;;;;;;36.77;23.89;91351.22;5011191;28;20034;-64
2022/05/16 07:44:04;;;;;;;7.93;3.00;;;;;;;34.91;25.64;91354.22;4987799;28;20085;-63
2022/05/16 07:46:30;;;;;;;2.75;2.20;;;;;;;35.91;25.96;91354.00;4991286;28;20077;-64
2022/05/16 07:48:55;;;;;;;2.60;2.20;;;;;;;37.87;23.40;91351.03;4991247;28;20018;-64
2022/05/16 07:51:20;;;;;;;5.80;2.13;;;;;;;39.11;23.27;91348.88;4991311;28;20026;-64
2022/05/16 07:53:46;;;;;;;2.08;1.80;;;;;;;36.88;23.74;91346.00;4990981;28;20039;-62
2022/05/16 07:56:11;;;;;;;3.30;2.15;;;;;;;34.50;25.03;91349.72;4990982;28;20045;-62
2022/05/16 07:58:37;;;;;;;1.58;1.48;;;;;;;34.45;23.93;91347.53;4991147;28;20030;-62
2022/05/16 08:01:03;;;;;;;5.03;2.30;;;;;;;34.38;24.86;91343.00;4991272;28;20026;-62
2022/05/16 08:03:30;;;;;;;2.10;1.90;;;;;;;36.48;22.96;91350.91;4991069;28;20031;-63
2022/05/16 08:05:57;;;;;;;5.32;1.50;;;;;;;35.48;23.11;91345.78;5006135;28;20095;-63
2022/05/16 08:11:14;;;;;;;5.82;2.33;;;;;;;33.91;24.44;91352.03;4997506;28;20042;-65
2022/05/16 08:13:44;;;;;;;1.88;1.70;;;;;;;34.81;23.80;91339.50;4991401;28;20034;-64
2022/05/16 08:16:10;;;;;;;2.08;1.70;;;;;;;36.69;23.48;91338.13;4991197;28;20030;-65
2022/05/16 08:18:35;;;;;;;3.75;2.00;;;;;;;35.57;24.76;91337.53;4991091;28;20165;-63
2022/05/16 08:21:01;;;;;;;2.40;1.48;;;;;;;34.56;24.96;91342.41;4991086;28;20102;-64
2022/05/16 08:23:29;;;;;;;2.25;1.52;;;;;;;38.41;20.50;91340.13;4990647;28;20433;-64
2022/05/16 08:25:58;;;;;;;1.67;1.55;;;;;;;37.74;22.39;91342.94;4991264;28;20027;-64
2022/05/16 08:28:24;;;;;;;1.80;1.70;;;;;;;36.53;22.41;91342.75;4991302;28;20030;-64
2022/05/16 08:30:51;;;;;;;1.85;1.40;;;;;;;34.24;24.27;91343.47;4991066;28;20029;-64
2022/05/16 08:33:17;;;;;;;1.70;1.60;;;;;;;32.98;25.43;91340.28;4990922;28;20066;-64
2022/05/16 08:35:42;;;;;;;1.90;1.80;;;;;;;32.26;26.25;91346.16;4994446;28;20457;-64
2022/05/16 08:40:53;;;;;;;3.70;2.05;;;;;;;32.72;27.09;91335.88;4994598;28;20037;-64
2022/05/16 08:43:51;;;;;;;2.13;1.85;;;;;;;32.43;27.21;91331.16;4994406;28;20045;-65
2022/05/16 08:46:46;;;;;;;5.22;2.08;;;;;;;32.23;27.22;91338.75;5009173;28;20389;-65
2022/05/16 08:49:45;;;;;;;2.30;1.70;;;;;;;32.59;26.87;91326.81;4994256;28;20062;-66
2022/05/16 08:52:19;;;;;;;3.10;1.70;;;;;;;32.91;26.05;91331.44;4994106;28;20096;-65
2022/05/16 08:54:58;;;;;;;3.90;1.70;;;;;;;33.43;26.42;91330.28;4993802;28;20041;-65
2022/05/16 08:57:46;;;;;;;6.20;1.90;;;;;;;34.61;25.78;91322.47;4993920;28;20085;-66
2022/05/16 09:00:24;;;;;;;2.65;1.80;;;;;;;32.70;26.58;91324.53;4994173;28;20650;-65
2022/05/16 09:02:52;;;;;;;2.22;1.80;;;;;;;32.64;27.17;91326.25;4993739;28;20057;-65
2022/05/16 09:05:23;;;;;;;1.95;1.80;;;;;;;34.94;25.82;91320.13;4993857;28;20066;-65
2022/05/16 09:07:54;;;;;;;2.42;1.77;;;;;;;34.99;24.94;91325.06;4994001;28;20026;-65
2022/05/16 09:10:25;;;;;;;3.58;1.65;;;;;;;35.57;24.60;91334.78;4993180;28;20105;-65
2022/05/16 09:13:05;;;;;;;3.45;2.20;;;;;;;33.93;25.22;91318.50;4993493;28;20034;-65
2022/05/16 09:15:51;;;;;;;3.13;1.80;;;;;;;34.42;24.99;91315.28;4993567;28;20034;-65
2022/05/16 09:18:25;;;;;;;4.63;1.85;;;;;;;33.69;26.08;91315.28;4993353;28;20471;-65
2022/05/16 09:21:00;;;;;;;2.40;1.80;;;;;;;32.88;26.60;91321.28;4993524;28;20524;-65
2022/05/16 09:23:41;;;;;;;2.60;1.73;;;;;;;33.68;25.85;91319.25;4993032;28;20026;-65
2022/05/16 09:26:34;;;;;;;3.05;1.90;;;;;;;33.23;26.15;91317.47;4993546;28;20034;-66
2022/05/16 09:29:22;;;;;;;2.45;1.60;;;;;;;34.21;24.88;91314.75;4993535;28;20022;-67
2022/05/16 09:31:49;;;;;;;2.80;1.73;;;;;;;34.59;24.86;91313.09;4993348;28;20571;-65
2022/05/16 09:34:15;;;;;;;3.97;1.73;;;;;;;33.00;25.75;91313.06;4993137;28;20519;-65
2022/05/16 09:36:45;;;;;;;4.10;1.67;;;;;;;34.05;24.26;91303.88;4993466;28;20105;-66
2022/05/16 09:39:16;;;;;;;1.60;1.50;;;;;;;34.12;24.77;91314.69;4992747;28;20054;-66
2022/05/16 09:41:53;;;;;;;5.25;2.08;;;;;;;34.52;24.72;91306.59;4993377;28;20038;-66
2022/05/16 09:44:28;;;;;;;2.45;1.30;;;;;;;33.97;23.53;91310.84;4993192;28;20032;-67
2022/05/16 09:47:22;;;;;;;2.15;1.70;;;;;;;33.45;25.43;91305.78;4992582;28;20493;-72
2022/05/16 09:50:24;;;;;;;6.63;2.00;;;;;;;32.80;26.03;91306.91;5007947;28;20579;-72
2022/05/16 09:53:05;;;;;;;1.58;1.40;;;;;;;35.12;23.91;91289.03;4993062;28;20508;-72
2022/05/16 09:55:41;;;;;;;8.35;1.92;;;;;;;33.71;25.16;91288.00;4993091;28;20054;-72
2022/05/16 09:58:19;;;;;;;2.00;1.90;;;;;;;31.58;26.80;91287.31;4992974;28;20031;-72
2022/05/16 10:01:06;;;;;;;2.55;1.90;;;;;;;31.99;25.65;91298.88;4992974;28;20041;-71
2022/05/16 10:03:36;;;;;;;4.53;1.70;;;;;;;31.90;25.85;91291.25;4992764;28;20030;-72
2022/05/16 10:06:10;;;;;;;4.00;1.73;;;;;;;31.91;25.57;91281.03;4993132;28;20054;-71
2022/05/16 10:08:38;;;;;;;2.05;1.63;;;;;;;33.44;22.82;91282.19;4992893;28;20037;-72
2022/05/16 10:11:07;;;;;;;2.30;1.50;;;;;;;30.87;24.92;91277.16;4992818;28;20411;-71
2022/05/16 10:13:33;;;;;;;2.50;1.33;;;;;;;32.31;24.12;91268.53;4992775;28;20026;-72
2022/05/16 10:16:03;;;;;;;1.50;1.40;;;;;;;32.14;25.28;91272.53;4992854;28;20084;-72
2022/05/16 10:18:31;;;;;;;1.67;1.30;;;;;;;32.84;22.69;91274.56;4992886;28;20031;-72
2022/05/16 10:21:03;;;;;;;1.98;1.45;;;;;;;32.92;23.32;91270.34;4992771;28;20424;-72
2022/05/16 10:23:37;;;;;;;1.83;1.70;;;;;;;34.14;21.50;91267.28;4992656;28;20456;-72
2022/05/16 10:26:10;;;;;;;2.72;1.98;;;;;;;33.75;24.30;91260.28;4992668;28;20113;-72
2022/05/16 10:28:42;;;;;;;1.70;1.60;;;;;;;31.76;25.88;91267.63;4992882;28;20026;-72
2022/05/16 10:34:06;;;;;;;2.80;1.85;;;;;;;33.25;24.12;91234.28;4992622;28;20126;-70
2022/05/16 10:36:33;;;;;;;6.25;2.22;;;;;;;32.21;25.57;91250.31;4992453;28;20034;-71
2022/05/16 10:39:10;;;;;;;4.30;2.10;;;;;;;31.53;26.27;91257.53;4992245;28;20491;-69
2022/05/16 10:41:54;;;;;;;1.95;1.58;;;;;;;30.80;27.00;91239.63;4992384;28;20034;-71
2022/05/16 10:44:26;;;;;;;2.17;1.80;;;;;;;30.12;27.75;91237.47;4992360;28;20034;-72
2022/05/16 10:47:03;;;;;;;4.35;2.63;;;;;;;29.14;27.89;91233.31;4992485;28;20033;-72
2022/05/16 10:49:38;;;;;;;3.30;1.77;;;;;;;29.58;28.31;91228.69;4992042;28;20045;-72
2022/05/16 10:52:19;;;;;;;1.98;1.83;;;;;;;28.56;29.04;91224.34;4992117;28;20050;-72
2022/05/16 10:54:45;;;;;;;4.65;4.10;;;;;;;28.80;31.33;91215.03;4992110;28;20034;-72
2022/05/16 10:57:32;;;;;;;3.53;2.03;;;;;;;30.06;28.08;91237.22;4991278;28;20489;-71
2022/05/16 11:00:19;;;;;;;1.70;1.60;;;;;;;29.67;27.88;91226.97;4992018;28;20038;-72
2022/05/16 11:03:13;;;;;;;4.30;1.83;;;;;;;30.25;27.68;91227.41;4992182;28;20038;-72
2022/05/16 11:05:53;;;;;;;5.03;2.20;;;;;;;29.94;27.74;91224.09;4994461;28;20034;-72
2022/05/16 11:08:46;;;;;;;4.47;1.95;;;;;;;30.62;26.58;91233.75;4995505;28;20044;-73
2022/05/16 11:11:28;;;;;;;2.42;2.05;;;;;;;31.12;26.49;91227.13;4993702;28;20105;-72
2022/05/16 11:14:11;;;;;;;1.60;1.33;;;;;;;31.55;25.47;91226.84;4992054;28;20050;-72
2022/05/16 11:16:38;;;;;;;3.95;1.73;;;;;;;33.45;22.56;91212.78;4992113;28;20488;-72
2022/05/16 11:19:22;;;;;;;2.92;1.48;;;;;;;32.84;25.50;91224.94;4991830;28;20034;-72
2022/05/16 11:21:54;;;;;;;1.65;1.20;;;;;;;32.09;24.07;91220.75;4991706;28;20034;-73
2022/05/16 11:24:34;;;;;;;;;;;;;;;32.01;23.01;91219.41;4992211;28;20042;-72
2022/05/16 11:27:13;;;;;;;1.42;1.10;;;;;;;31.60;22.61;91226.34;4991703;28;19914;-72
2022/05/16 11:29:59;;;;;;;1.20;1.10;;;;;;;32.89;20.44;91216.13;4991578;28;20120;-72
2022/05/16 11:32:46;;;;;;;1.40;1.17;;;;;;;33.93;20.83;91208.84;4991536;28;20034;-72
2022/05/16 11:35:52;;;;;;;2.42;1.40;;;;;;;33.72;22.82;91209.53;4991756;28;20049;-72
2022/05/16 11:38:39;;;;;;;1.30;1.10;;;;;;;33.29;22.46;91207.38;4984394;28;20047;-72
2022/05/16 11:41:27;;;;;;;2.13;1.48;;;;;;;34.58;22.91;91206.56;4991559;28;20049;-73
2022/05/16 11:44:23;;;;;;;5.85;1.27;;;;;;;34.54;22.14;91196.38;4991502;28;20035;-73
2022/05/16 11:47:07;;;;;;;3.47;1.58;;;;;;;32.73;23.30;91207.94;4991528;28;20038;-72
2022/05/16 11:49:45;;;;;;;2.25;1.73;;;;;;;33.00;23.67;91199.25;4991229;28;20509;-72
2022/05/16 11:52:29;;;;;;;4.28;1.42;;;;;;;33.25;22.25;91209.47;4991644;28;20149;-72
2022/05/16 12:00:31;;;;;;;3.00;1.60;;;;;;;31.72;24.04;91198.16;4991571;28;20041;-72
2022/05/16 12:01:07;;;;;;;2.05;1.65;;;;;;;31.74;23.97;91201.25;4991798;28;20057;-72
2022/05/16 12:03:42;;;;;;;4.10;1.60;;;;;;;32.21;23.87;91203.53;4992950;28;20047;-72
2022/05/16 12:06:22;;;;;;;2.22;1.52;;;;;;;31.79;23.08;91188.94;5004496;28;20057;-72
2022/05/16 12:08:48;;;;;;;6.70;2.28;;;;;;;33.08;23.12;91175.75;5011699;28;20030;-72
2022/05/16 12:11:26;;;;;;;5.32;1.80;;;;;;;33.21;23.26;91181.25;5014670;28;20037;-72